Torm Horizon — OYNM2 — position and weather

sailwx.info

Track history (hours):
 
Tides and Currents Weather Stations Pressure Air Temp Water Temp Dewpoint Dewpoint Depression Visibility Wind Speed Wind Dir Waves Ship Positions

Torm Horizon

Last reported at 2018-May-23 09:40 UTC. Time now 2018-Jun-20 14:56 UTC.
Position N 01°14' E 103°27'.
Warning: this ship's position is 28 days out of date.

Length 183 m; draft 7.5 m.

Type: Ship (hazmat cat B). MMSI: 220566000.

Date/timePositionNaut miles runAvg speedWind from/ knotsBaromVisibWave heightAir tempDewpointWater temp
2018-May-23 09:40N 01°14' E 103°27'212.7
2018-May-23 09:30N 01°13' E 103°29'612.8
2018-May-23 09:00N 01°11' E 103°35'712.3
2018-May-23 08:28N 01°10' E 103°41'611.8
2018-May-23 08:00N 01°10' E 103°47'3 6.2
2018-May-23 07:28N 01°13' E 103°48'1 1.6
2018-May-23 06:58N 01°13' E 103°49'0 0.0
2018-May-23 06:28N 01°13' E 103°49'0 0.1
2018-May-23 05:58N 01°13' E 103°49'0 0.0
2018-May-23 05:31N 01°13' E 103°49'0 0.0
2018-May-23 04:58N 01°13' E 103°49'0 0.0
2018-May-23 04:31N 01°13' E 103°49'0 0.0
2018-May-23 04:00N 01°13' E 103°49'0 0.0
2018-May-23 03:27N 01°13' E 103°49'0 0.0
2018-May-23 02:57N 01°13' E 103°49'0 0.0
2018-May-23 02:27N 01°13' E 103°49'0 0.1
2018-May-23 02:00N 01°13' E 103°49'0 0.0
2018-May-23 01:30N 01°13' E 103°49'0 0.1
2018-May-23 00:51N 01°13' E 103°49'0 0.1
2018-May-23 00:30N 01°13' E 103°49'0 0.1
2018-May-23 00:00N 01°13' E 103°48'0 0.1
2018-May-22 23:27N 01°13' E 103°49'0 0.0
2018-May-22 22:57N 01°13' E 103°49'0 0.0
2018-May-22 22:30N 01°13' E 103°49'0 0.0
2018-May-22 22:00N 01°13' E 103°49'0 0.0
2018-May-22 21:27N 01°13' E 103°49'0 0.0
2018-May-22 20:54N 01°13' E 103°49'0 0.3
2018-May-22 20:27N 01°13' E 103°48'0 0.1
2018-May-22 19:51N 01°13' E 103°48'0 0.1
2018-May-22 19:30N 01°13' E 103°48'0 0.1
2018-May-22 19:00N 01°13' E 103°48'0 0.0
2018-May-22 18:24N 01°13' E 103°48'0 0.1
2018-May-22 18:00N 01°13' E 103°48'0 0.1
2018-May-22 17:30N 01°13' E 103°48'0 0.1
2018-May-22 16:57N 01°13' E 103°48'0 0.1
2018-May-22 16:30N 01°13' E 103°48'0 0.1
2018-May-22 16:00N 01°13' E 103°48'0 0.1
2018-May-22 15:21N 01°13' E 103°48'0 0.2
2018-May-22 14:57N 01°13' E 103°48'0 0.2
2018-May-22 14:30N 01°13' E 103°48'0 0.1
2018-May-22 14:00N 01°13' E 103°48'0 0.1
2018-May-22 13:18N 01°13' E 103°48'0 0.1
2018-May-22 13:00N 01°13' E 103°48'0 0.0
2018-May-22 12:30N 01°13' E 103°48'0 0.1
2018-May-22 11:57N 01°13' E 103°48'0 0.1
2018-May-22 11:27N 01°13' E 103°48'0 0.1
2018-May-22 10:51N 01°13' E 103°48'0 0.1
2018-May-22 10:21N 01°13' E 103°48'0 0.0
2018-May-22 10:00N 01°13' E 103°48'0 0.0
2018-May-22 09:27N 01°13' E 103°48'0 0.0
2018-May-22 09:00N 01°13' E 103°48'0 0.1
2018-May-22 08:09N 01°13' E 103°48'0 0.0
2018-May-22 07:57N 01°13' E 103°48'0 0.1
2018-May-22 07:30N 01°13' E 103°48'0 0.1
2018-May-22 05:58N 01°13' E 103°48'0 0.1
2018-May-22 05:13N 01°13' E 103°49'0 0.1
2018-May-22 04:49N 01°13' E 103°49'0 0.1
2018-May-22 04:28N 01°13' E 103°49'0 0.0
2018-May-22 03:55N 01°13' E 103°49'1 1.3
2018-May-22 03:30N 01°13' E 103°49'4 8.4
2018-May-22 03:00N 01°14' E 103°53'  
2018-May-19 17:54N 01°22' E 104°25'511.4
2018-May-19 17:26N 01°18' E 104°21'5 9.8
2018-May-19 16:57N 01°17' E 104°16'5 9.0
2018-May-19 16:27N 01°16' E 104°11'4 9.4
2018-May-19 16:00N 01°16' E 104°07'5 9.7
2018-May-19 15:29N 01°15' E 104°03'5 9.9
2018-May-19 15:00N 01°14' E 103°58'5 9.9
2018-May-19 14:31N 01°12' E 103°53'4 8.6
2018-May-19 14:00N 01°10' E 103°49'5 9.4
2018-May-19 13:30N 01°07' E 103°46'510.2
2018-May-19 13:00N 01°04' E 103°42'510.3
2018-May-19 12:30N 01°04' E 103°36'611.3
2018-May-19 12:00N 01°08' E 103°33'510.7
2018-May-19 11:31N 01°13' E 103°34'2 4.5
2018-May-19 10:59N 01°15' E 103°35'0 0.1
2018-May-19 10:29N 01°15' E 103°35'0 0.1
2018-May-19 10:00N 01°15' E 103°35'0 0.1
2018-May-19 09:29N 01°15' E 103°35'0 0.1
2018-May-19 08:59N 01°15' E 103°35'0 0.1
2018-May-19 08:28N 01°15' E 103°35'0 0.0
2018-May-19 07:59N 01°15' E 103°35'0 0.0
2018-May-19 07:26N 01°15' E 103°35'0 0.2
2018-May-19 06:59N 01°15' E 103°35'0 0.0
2018-May-19 06:28N 01°15' E 103°35'0 0.0
2018-May-19 05:58N 01°15' E 103°35'0 0.0
2018-May-19 05:29N 01°15' E 103°35'0 0.1
2018-May-19 04:59N 01°15' E 103°35'0 0.1
2018-May-19 04:25N 01°15' E 103°35'0 0.2
2018-May-19 03:58N 01°15' E 103°35'0 0.2
2018-May-19 03:29N 01°15' E 103°35'0 0.1
2018-May-19 02:53N 01°15' E 103°35'0 0.2
2018-May-19 02:29N 01°15' E 103°35'0 0.0
2018-May-19 01:59N 01°15' E 103°35'0 0.0
2018-May-19 01:28N 01°15' E 103°35'0 0.0
2018-May-19 00:58N 01°15' E 103°35'0 0.0
2018-May-19 00:28N 01°15' E 103°35'0 0.1
2018-May-18 23:58N 01°15' E 103°35'0 0.0
2018-May-18 23:28N 01°15' E 103°35'0 0.0
2018-May-18 22:58N 01°15' E 103°35'0 0.0
2018-May-18 22:26N 01°15' E 103°35'0 0.1
2018-May-18 21:59N 01°15' E 103°35'0 0.1
2018-May-18 21:29N 01°15' E 103°35'0 0.1
2018-May-18 20:58N 01°15' E 103°35'0 0.1
2018-May-18 20:29N 01°15' E 103°35'0 0.1
2018-May-18 19:59N 01°15' E 103°35'0 0.0
2018-May-18 19:29N 01°15' E 103°35'0 0.0
2018-May-18 18:59N 01°15' E 103°35'0 0.1
2018-May-18 18:26N 01°15' E 103°35'0 0.0
2018-May-18 17:59N 01°15' E 103°35'0 0.1
2018-May-18 17:26N 01°15' E 103°35'0 0.0
2018-May-18 16:59N 01°15' E 103°35'0 0.0
2018-May-18 16:28N 01°15' E 103°35'0 0.1
2018-May-18 15:59N 01°15' E 103°35'0 0.1
2018-May-18 15:26N 01°15' E 103°35'0 0.1
2018-May-18 14:59N 01°15' E 103°35'0 0.0
2018-May-18 14:26N 01°15' E 103°35'0 0.0
2018-May-18 13:59N 01°15' E 103°35'0 0.0
2018-May-18 13:29N 01°15' E 103°35'0 0.2
2018-May-18 12:59N 01°15' E 103°35'0 0.1
2018-May-18 12:29N 01°15' E 103°35'0 0.1
2018-May-18 11:59N 01°15' E 103°35'0 0.0
2018-May-18 11:26N 01°15' E 103°35'0 0.0
2018-May-18 10:59N 01°15' E 103°35'0 0.1
2018-May-18 10:28N 01°15' E 103°35'0 0.0
2018-May-18 09:58N 01°15' E 103°35'0 0.1
2018-May-18 09:29N 01°15' E 103°35'0 0.2
2018-May-18 08:58N 01°15' E 103°35'0 0.2
2018-May-18 08:28N 01°15' E 103°35'0 0.3
2018-May-18 07:59N 01°15' E 103°35'0 0.0
2018-May-18 07:28N 01°15' E 103°35'0 0.1
2018-May-18 06:55N 01°15' E 103°35'0 0.2
2018-May-18 06:31N 01°15' E 103°35'0 0.1
2018-May-18 05:58N 01°15' E 103°35'0 0.0
2018-May-18 05:31N 01°15' E 103°35'0 0.1
2018-May-18 05:00N 01°15' E 103°35'0 0.0
2018-May-18 04:29N 01°15' E 103°35'0 0.2
2018-May-18 03:55N 01°15' E 103°35'0 0.2
2018-May-18 03:29N 01°15' E 103°35'0 0.0
2018-May-18 02:58N 01°15' E 103°35'0 0.1
2018-May-18 02:28N 01°15' E 103°35'0 0.1
2018-May-18 02:00N 01°15' E 103°35'0 0.0
2018-May-18 01:30N 01°15' E 103°35'0 0.1
2018-May-18 00:49N 01°15' E 103°35'0 0.0
2018-May-18 00:30N 01°15' E 103°35'0 0.1
2018-May-17 23:59N 01°15' E 103°35'2 4.1
2018-May-17 23:30N 01°14' E 103°34'2 3.6
2018-May-17 22:58N 01°13' E 103°32'3 5.4
2018-May-17 22:30N 01°12' E 103°30'2 4.0
2018-May-17 22:00N 01°10' E 103°28'2 4.1
2018-May-17 21:30N 01°11' E 103°27'2 3.6
2018-May-17 21:00N 01°12' E 103°25'3 6.5
2018-May-17 20:29N 01°14' E 103°22'4 8.6
2018-May-17 20:00N 01°16' E 103°19'711.8
2018-May-17 19:26N 01°21' E 103°14'8 7.9
2018-May-17 18:25N 01°25' E 103°08'  
Track history (hours):
 
Tides and Currents Weather Stations Pressure Air Temp Water Temp Dewpoint Dewpoint Depression Visibility Wind Speed Wind Dir Waves Ship Positions

Torm Horizon

Last reported at 2018-May-23 09:40 UTC. Time now 2018-Jun-20 14:56 UTC.
Position N 01°14' E 103°27'.
Warning: this ship's position is 28 days out of date.

Length 183 m; draft 7.5 m.

Type: Ship (hazmat cat B). MMSI: 220566000.

Date/timePositionNaut miles runAvg speedWind from/ knotsBaromVisibWave heightAir tempDewpointWater temp
2018-May-23 09:40N 01°14' E 103°27'212.7
2018-May-23 09:30N 01°13' E 103°29'612.8
2018-May-23 09:00N 01°11' E 103°35'712.3
2018-May-23 08:28N 01°10' E 103°41'611.8
2018-May-23 08:00N 01°10' E 103°47'3 6.2
2018-May-23 07:28N 01°13' E 103°48'1 1.6
2018-May-23 06:58N 01°13' E 103°49'0 0.0
2018-May-23 06:28N 01°13' E 103°49'0 0.1
2018-May-23 05:58N 01°13' E 103°49'0 0.0
2018-May-23 05:31N 01°13' E 103°49'0 0.0
2018-May-23 04:58N 01°13' E 103°49'0 0.0
2018-May-23 04:31N 01°13' E 103°49'0 0.0
2018-May-23 04:00N 01°13' E 103°49'0 0.0
2018-May-23 03:27N 01°13' E 103°49'0 0.0
2018-May-23 02:57N 01°13' E 103°49'0 0.0
2018-May-23 02:27N 01°13' E 103°49'0 0.1
2018-May-23 02:00N 01°13' E 103°49'0 0.0
2018-May-23 01:30N 01°13' E 103°49'0 0.1
2018-May-23 00:51N 01°13' E 103°49'0 0.1
2018-May-23 00:30N 01°13' E 103°49'0 0.1
2018-May-23 00:00N 01°13' E 103°48'0 0.1
2018-May-22 23:27N 01°13' E 103°49'0 0.0
2018-May-22 22:57N 01°13' E 103°49'0 0.0
2018-May-22 22:30N 01°13' E 103°49'0 0.0
2018-May-22 22:00N 01°13' E 103°49'0 0.0
2018-May-22 21:27N 01°13' E 103°49'0 0.0
2018-May-22 20:54N 01°13' E 103°49'0 0.3
2018-May-22 20:27N 01°13' E 103°48'0 0.1
2018-May-22 19:51N 01°13' E 103°48'0 0.1
2018-May-22 19:30N 01°13' E 103°48'0 0.1
2018-May-22 19:00N 01°13' E 103°48'0 0.0
2018-May-22 18:24N 01°13' E 103°48'0 0.1
2018-May-22 18:00N 01°13' E 103°48'0 0.1
2018-May-22 17:30N 01°13' E 103°48'0 0.1
2018-May-22 16:57N 01°13' E 103°48'0 0.1
2018-May-22 16:30N 01°13' E 103°48'0 0.1
2018-May-22 16:00N 01°13' E 103°48'0 0.1
2018-May-22 15:21N 01°13' E 103°48'0 0.2
2018-May-22 14:57N 01°13' E 103°48'0 0.2
2018-May-22 14:30N 01°13' E 103°48'0 0.1
2018-May-22 14:00N 01°13' E 103°48'0 0.1
2018-May-22 13:18N 01°13' E 103°48'0 0.1
2018-May-22 13:00N 01°13' E 103°48'0 0.0
2018-May-22 12:30N 01°13' E 103°48'0 0.1
2018-May-22 11:57N 01°13' E 103°48'0 0.1
2018-May-22 11:27N 01°13' E 103°48'0 0.1
2018-May-22 10:51N 01°13' E 103°48'0 0.1
2018-May-22 10:21N 01°13' E 103°48'0 0.0
2018-May-22 10:00N 01°13' E 103°48'0 0.0
2018-May-22 09:27N 01°13' E 103°48'0 0.0
2018-May-22 09:00N 01°13' E 103°48'0 0.1
2018-May-22 08:09N 01°13' E 103°48'0 0.0
2018-May-22 07:57N 01°13' E 103°48'0 0.1
2018-May-22 07:30N 01°13' E 103°48'0 0.1
2018-May-22 05:58N 01°13' E 103°48'0 0.1
2018-May-22 05:13N 01°13' E 103°49'0 0.1
2018-May-22 04:49N 01°13' E 103°49'0 0.1
2018-May-22 04:28N 01°13' E 103°49'0 0.0
2018-May-22 03:55N 01°13' E 103°49'1 1.3
2018-May-22 03:30N 01°13' E 103°49'4 8.4
2018-May-22 03:00N 01°14' E 103°53'  
2018-May-19 17:54N 01°22' E 104°25'511.4
2018-May-19 17:26N 01°18' E 104°21'5 9.8
2018-May-19 16:57N 01°17' E 104°16'5 9.0
2018-May-19 16:27N 01°16' E 104°11'4 9.4
2018-May-19 16:00N 01°16' E 104°07'5 9.7
2018-May-19 15:29N 01°15' E 104°03'5 9.9
2018-May-19 15:00N 01°14' E 103°58'5 9.9
2018-May-19 14:31N 01°12' E 103°53'4 8.6
2018-May-19 14:00N 01°10' E 103°49'5 9.4
2018-May-19 13:30N 01°07' E 103°46'510.2
2018-May-19 13:00N 01°04' E 103°42'510.3
2018-May-19 12:30N 01°04' E 103°36'611.3
2018-May-19 12:00N 01°08' E 103°33'510.7
2018-May-19 11:31N 01°13' E 103°34'2 4.5
2018-May-19 10:59N 01°15' E 103°35'0 0.1
2018-May-19 10:29N 01°15' E 103°35'0 0.1
2018-May-19 10:00N 01°15' E 103°35'0 0.1
2018-May-19 09:29N 01°15' E 103°35'0 0.1
2018-May-19 08:59N 01°15' E 103°35'0 0.1
2018-May-19 08:28N 01°15' E 103°35'0 0.0
2018-May-19 07:59N 01°15' E 103°35'0 0.0
2018-May-19 07:26N 01°15' E 103°35'0 0.2
2018-May-19 06:59N 01°15' E 103°35'0 0.0
2018-May-19 06:28N 01°15' E 103°35'0 0.0
2018-May-19 05:58N 01°15' E 103°35'0 0.0
2018-May-19 05:29N 01°15' E 103°35'0 0.1
2018-May-19 04:59N 01°15' E 103°35'0 0.1
2018-May-19 04:25N 01°15' E 103°35'0 0.2
2018-May-19 03:58N 01°15' E 103°35'0 0.2
2018-May-19 03:29N 01°15' E 103°35'0 0.1
2018-May-19 02:53N 01°15' E 103°35'0 0.2
2018-May-19 02:29N 01°15' E 103°35'0 0.0
2018-May-19 01:59N 01°15' E 103°35'0 0.0
2018-May-19 01:28N 01°15' E 103°35'0 0.0
2018-May-19 00:58N 01°15' E 103°35'0 0.0
2018-May-19 00:28N 01°15' E 103°35'0 0.1
2018-May-18 23:58N 01°15' E 103°35'0 0.0
2018-May-18 23:28N 01°15' E 103°35'0 0.0
2018-May-18 22:58N 01°15' E 103°35'0 0.0
2018-May-18 22:26N 01°15' E 103°35'0 0.1
2018-May-18 21:59N 01°15' E 103°35'0 0.1
2018-May-18 21:29N 01°15' E 103°35'0 0.1
2018-May-18 20:58N 01°15' E 103°35'0 0.1
2018-May-18 20:29N 01°15' E 103°35'0 0.1
2018-May-18 19:59N 01°15' E 103°35'0 0.0
2018-May-18 19:29N 01°15' E 103°35'0 0.0
2018-May-18 18:59N 01°15' E 103°35'0 0.1
2018-May-18 18:26N 01°15' E 103°35'0 0.0
2018-May-18 17:59N 01°15' E 103°35'0 0.1
2018-May-18 17:26N 01°15' E 103°35'0 0.0
2018-May-18 16:59N 01°15' E 103°35'0 0.0
2018-May-18 16:28N 01°15' E 103°35'0 0.1
2018-May-18 15:59N 01°15' E 103°35'0 0.1
2018-May-18 15:26N 01°15' E 103°35'0 0.1
2018-May-18 14:59N 01°15' E 103°35'0 0.0
2018-May-18 14:26N 01°15' E 103°35'0 0.0
2018-May-18 13:59N 01°15' E 103°35'0 0.0
2018-May-18 13:29N 01°15' E 103°35'0 0.2
2018-May-18 12:59N 01°15' E 103°35'0 0.1
2018-May-18 12:29N 01°15' E 103°35'0 0.1
2018-May-18 11:59N 01°15' E 103°35'0 0.0
2018-May-18 11:26N 01°15' E 103°35'0 0.0
2018-May-18 10:59N 01°15' E 103°35'0 0.1
2018-May-18 10:28N 01°15' E 103°35'0 0.0
2018-May-18 09:58N 01°15' E 103°35'0 0.1
2018-May-18 09:29N 01°15' E 103°35'0 0.2
2018-May-18 08:58N 01°15' E 103°35'0 0.2
2018-May-18 08:28N 01°15' E 103°35'0 0.3
2018-May-18 07:59N 01°15' E 103°35'0 0.0
2018-May-18 07:28N 01°15' E 103°35'0 0.1
2018-May-18 06:55N 01°15' E 103°35'0 0.2
2018-May-18 06:31N 01°15' E 103°35'0 0.1
2018-May-18 05:58N 01°15' E 103°35'0 0.0
2018-May-18 05:31N 01°15' E 103°35'0 0.1
2018-May-18 05:00N 01°15' E 103°35'0 0.0
2018-May-18 04:29N 01°15' E 103°35'0 0.2
2018-May-18 03:55N 01°15' E 103°35'0 0.2
2018-May-18 03:29N 01°15' E 103°35'0 0.0
2018-May-18 02:58N 01°15' E 103°35'0 0.1
2018-May-18 02:28N 01°15' E 103°35'0 0.1
2018-May-18 02:00N 01°15' E 103°35'0 0.0
2018-May-18 01:30N 01°15' E 103°35'0 0.1
2018-May-18 00:49N 01°15' E 103°35'0 0.0
2018-May-18 00:30N 01°15' E 103°35'0 0.1
2018-May-17 23:59N 01°15' E 103°35'2 4.1
2018-May-17 23:30N 01°14' E 103°34'2 3.6
2018-May-17 22:58N 01°13' E 103°32'3 5.4
2018-May-17 22:30N 01°12' E 103°30'2 4.0
2018-May-17 22:00N 01°10' E 103°28'2 4.1
2018-May-17 21:30N 01°11' E 103°27'2 3.6
2018-May-17 21:00N 01°12' E 103°25'3 6.5
2018-May-17 20:29N 01°14' E 103°22'4 8.6
2018-May-17 20:00N 01°16' E 103°19'711.8
2018-May-17 19:26N 01°21' E 103°14'8 7.9
2018-May-17 18:25N 01°25' E 103°08'  

Dump ship's entire track history